createdAt,value
2018-04-02T00:01:02.209Z,4.90
2018-04-02T00:03:29.680Z,4.70
2018-04-02T00:05:57.201Z,4.60
2018-04-02T00:08:24.675Z,4.50
2018-04-02T00:10:52.160Z,4.40
2018-04-02T00:13:19.624Z,4.40
2018-04-02T00:15:47.375Z,4.40
2018-04-02T00:18:14.912Z,4.50
2018-04-02T00:20:42.780Z,4.50
2018-04-02T00:23:10.282Z,4.50
2018-04-02T00:25:37.772Z,4.60
2018-04-02T00:28:06.016Z,4.60
2018-04-02T00:30:33.500Z,4.60
2018-04-02T00:33:00.956Z,4.70
2018-04-02T00:35:29.188Z,4.70
2018-04-02T00:37:56.667Z,4.70
2018-04-02T00:40:24.189Z,4.80
2018-04-02T00:42:51.687Z,4.90
2018-04-02T00:45:19.173Z,4.90
2018-04-02T00:47:47.040Z,4.90
2018-04-02T00:50:15.281Z,4.80
2018-04-02T00:52:42.761Z,4.80
2018-04-02T00:55:10.227Z,4.70
2018-04-02T00:57:38.482Z,4.60
2018-04-02T01:00:06.256Z,4.60
2018-04-02T01:02:33.721Z,4.60
2018-04-02T01:05:02.036Z,4.80
2018-04-02T01:07:29.801Z,4.80
2018-04-02T01:09:57.267Z,4.80
2018-04-02T01:12:24.729Z,4.80
2018-04-02T01:14:52.223Z,4.70
2018-04-02T01:17:20.455Z,4.90
2018-04-02T01:19:47.919Z,4.80
2018-04-02T01:22:15.570Z,4.70
2018-04-02T01:24:43.032Z,4.80
2018-04-02T01:27:10.516Z,4.80
2018-04-02T01:29:37.999Z,4.80
2018-04-02T01:32:06.227Z,4.80
2018-04-02T01:34:33.714Z,4.80
2018-04-02T01:37:01.191Z,4.70
2018-04-02T01:39:29.499Z,4.70
2018-04-02T01:41:56.968Z,4.70
2018-04-02T01:44:24.444Z,4.70
2018-04-02T01:46:51.906Z,4.80
2018-04-02T01:49:19.384Z,4.90
2018-04-02T01:51:47.961Z,4.80
2018-04-02T01:54:16.207Z,4.90
2018-04-02T01:56:43.678Z,4.90
2018-04-02T01:59:11.161Z,4.90
2018-04-02T02:01:39.413Z,4.90
2018-04-02T02:04:07.280Z,4.80
2018-04-02T02:06:35.008Z,4.90
2018-04-02T02:09:03.607Z,4.80
2018-04-02T02:11:31.079Z,4.90
2018-04-02T02:13:58.860Z,4.90
2018-04-02T02:16:26.327Z,4.80
2018-04-02T02:18:54.560Z,4.80
2018-04-02T02:21:22.046Z,4.80
2018-04-02T02:23:49.524Z,4.80
2018-04-02T02:26:17.761Z,4.80
2018-04-02T02:28:45.549Z,4.80
2018-04-02T02:31:13.021Z,4.80
2018-04-02T02:33:41.248Z,4.80
2018-04-02T02:36:09.040Z,4.80
2018-04-02T02:38:36.522Z,4.80
2018-04-02T02:41:04.755Z,4.90
2018-04-02T02:43:33.015Z,4.80
2018-04-02T02:46:00.494Z,4.80
2018-04-02T02:48:27.954Z,4.70
2018-04-02T02:50:55.707Z,4.80
2018-04-02T02:53:23.182Z,4.70
2018-04-02T02:55:50.651Z,4.80
2018-04-02T02:58:18.210Z,4.80
2018-04-02T03:00:46.440Z,4.70
2018-04-02T03:03:13.906Z,4.60
2018-04-02T03:05:42.532Z,4.70
2018-04-02T03:08:10.786Z,4.80
2018-04-02T03:10:38.262Z,4.60
2018-04-02T03:13:06.833Z,4.70
2018-04-02T03:15:34.307Z,4.70
2018-04-02T03:18:02.540Z,4.70
2018-04-02T03:20:30.028Z,4.70
2018-04-02T03:22:57.508Z,4.70
2018-04-02T03:25:24.985Z,4.70
2018-04-02T03:27:52.954Z,4.60
2018-04-02T03:30:20.428Z,4.70
2018-04-02T03:32:47.892Z,4.80
2018-04-02T03:35:15.684Z,4.80
2018-04-02T03:37:43.172Z,4.70
2018-04-02T03:40:10.633Z,4.70
2018-04-02T03:42:38.132Z,4.70
2018-04-02T03:45:05.599Z,4.80
2018-04-02T03:47:33.074Z,4.50
2018-04-02T03:50:00.841Z,4.60
2018-04-02T03:52:29.078Z,4.60
2018-04-02T03:54:56.547Z,4.60
2018-04-02T03:57:24.420Z,4.60
2018-04-02T03:59:51.896Z,4.60
2018-04-02T04:02:19.367Z,4.70
2018-04-02T04:04:47.940Z,4.60
2018-04-02T04:07:16.189Z,4.60
2018-04-02T04:09:43.663Z,4.50
2018-04-02T04:12:11.639Z,4.50
2018-04-02T04:14:39.871Z,4.60
2018-04-02T04:17:07.731Z,4.60
2018-04-02T04:19:35.214Z,4.70
2018-04-02T04:22:03.089Z,4.50
2018-04-02T04:24:30.556Z,4.60
2018-04-02T04:26:59.101Z,4.70
2018-04-02T04:29:26.592Z,4.60
2018-04-02T04:31:54.062Z,4.60
2018-04-02T04:34:22.647Z,4.70
2018-04-02T04:36:50.883Z,4.60
2018-04-02T04:39:18.371Z,4.60
2018-04-02T04:41:45.855Z,4.70
2018-04-02T04:44:13.331Z,4.70
2018-04-02T04:46:40.832Z,4.60
2018-04-02T04:49:08.809Z,4.60
2018-04-02T04:51:36.321Z,4.50
2018-04-02T04:54:03.771Z,4.50
2018-04-02T04:56:31.659Z,4.50
2018-04-02T04:58:59.128Z,4.60
2018-04-02T05:01:26.604Z,4.50
2018-04-02T05:03:54.416Z,4.50
2018-04-02T05:06:21.885Z,4.50
2018-04-02T05:08:49.350Z,4.50
2018-04-02T05:11:17.159Z,4.50
2018-04-02T05:13:45.061Z,4.40
2018-04-02T05:18:46.376Z,4.40
2018-04-02T05:21:13.888Z,4.50
2018-04-02T05:23:41.353Z,4.60
2018-04-02T05:26:09.151Z,4.40
2018-04-02T05:28:38.128Z,4.30
2018-04-02T05:31:05.993Z,4.40
2018-04-02T05:33:33.503Z,4.40
2018-04-02T05:36:01.354Z,4.50
2018-04-02T05:38:29.590Z,4.50
2018-04-02T05:40:57.530Z,4.50
2018-04-02T05:43:24.995Z,4.50
2018-04-02T05:45:52.467Z,4.60
2018-04-02T05:48:19.952Z,4.50
2018-04-02T05:50:48.279Z,4.60
2018-04-02T05:53:15.742Z,4.70
2018-04-02T05:55:43.611Z,4.50
2018-04-02T05:58:11.088Z,4.50
2018-04-02T06:00:38.571Z,4.50
2018-04-02T06:03:06.044Z,4.60
2018-04-02T06:05:34.276Z,4.60
2018-04-02T06:08:01.744Z,4.50
2018-04-02T06:10:29.222Z,4.60
2018-04-02T06:12:57.462Z,4.60
2018-04-02T06:15:24.938Z,4.60
2018-04-02T06:17:52.431Z,4.70
2018-04-02T06:20:20.015Z,4.70
2018-04-02T06:22:47.491Z,4.70
2018-04-02T06:25:15.442Z,4.70
2018-04-02T06:27:42.915Z,4.70
2018-04-02T06:30:11.307Z,4.80
2018-04-02T06:32:38.792Z,4.70
2018-04-02T06:35:06.704Z,4.80
2018-04-02T06:37:34.176Z,4.90
2018-04-02T06:40:01.986Z,4.90
2018-04-02T06:42:29.582Z,4.90
2018-04-02T06:44:57.047Z,4.90
2018-04-02T06:47:24.780Z,5.00
2018-04-02T06:49:52.243Z,5.00
2018-04-02T06:52:19.736Z,5.00
2018-04-02T06:54:47.278Z,5.10
2018-04-02T06:57:14.743Z,5.10
2018-04-02T06:59:43.033Z,5.10
2018-04-02T07:02:10.533Z,5.20
2018-04-02T07:04:39.049Z,5.30
2018-04-02T07:07:06.604Z,5.30
2018-04-02T07:09:34.088Z,5.40
2018-04-02T07:12:01.564Z,5.30
2018-04-02T07:14:29.044Z,5.40
2018-04-02T07:16:57.607Z,5.40
2018-04-02T07:19:25.863Z,5.50
2018-04-02T07:21:53.804Z,5.40
2018-04-02T07:24:21.283Z,5.40
2018-04-02T07:26:49.147Z,5.40
2018-04-02T07:29:16.612Z,5.50
2018-04-02T07:31:44.396Z,5.50
2018-04-02T07:34:11.872Z,5.50
2018-04-02T07:36:40.108Z,5.60
2018-04-02T07:39:08.004Z,5.70
2018-04-02T07:41:36.325Z,5.70
2018-04-02T07:44:03.804Z,5.80
2018-04-02T07:46:31.584Z,5.80
2018-04-02T07:48:59.057Z,5.80
2018-04-02T07:51:27.315Z,6.00
2018-04-02T07:53:54.816Z,6.10
2018-04-02T07:56:22.281Z,6.20
2018-04-02T07:58:49.755Z,6.10
2018-04-02T08:01:17.563Z,6.10
2018-04-02T08:03:45.035Z,6.20
2018-04-02T08:06:13.263Z,6.30
2018-04-02T08:08:41.122Z,6.10
2018-04-02T08:11:08.576Z,6.20
2018-04-02T08:13:36.040Z,6.30
2018-04-02T08:16:03.575Z,6.30
2018-04-02T08:18:31.040Z,6.40
2018-04-02T08:20:58.915Z,6.40
2018-04-02T08:23:26.416Z,6.60
2018-04-02T08:25:54.686Z,6.60
2018-04-02T08:28:22.202Z,6.60
2018-04-02T08:30:50.414Z,6.70
2018-04-02T08:33:18.727Z,6.70
2018-04-02T08:35:46.193Z,6.60
2018-04-02T08:38:13.673Z,6.70
2018-04-02T08:40:42.281Z,6.80
2018-04-02T08:43:09.760Z,6.90
2018-04-02T08:45:37.636Z,6.90
2018-04-02T08:48:05.525Z,6.80
2018-04-02T08:50:33.095Z,6.80
2018-04-02T08:53:00.625Z,3.60
2018-04-02T08:55:28.466Z,6.80
2018-04-02T08:57:56.453Z,7.00
2018-04-02T09:00:24.702Z,7.20
2018-04-02T09:02:52.223Z,7.20
2018-04-02T09:05:20.123Z,7.50
2018-04-02T09:07:47.620Z,7.30
2018-04-02T09:10:15.511Z,7.30
2018-04-02T09:12:42.984Z,7.20
2018-04-02T09:15:10.792Z,7.20
2018-04-02T09:17:39.068Z,7.30
2018-04-02T09:20:07.312Z,7.20
2018-04-02T09:22:35.099Z,7.20
2018-04-02T09:25:02.575Z,7.20
2018-04-02T09:27:30.811Z,7.30
2018-04-02T09:29:58.595Z,7.40
2018-04-02T09:32:26.276Z,7.40
2018-04-02T09:34:54.347Z,7.40
2018-04-02T09:37:22.959Z,7.50
2018-04-02T09:39:52.262Z,7.50
2018-04-02T09:42:19.731Z,7.60
2018-04-02T09:44:47.347Z,7.70
2018-04-02T09:47:15.216Z,7.70
2018-04-02T09:49:43.454Z,7.70
2018-04-02T09:52:10.982Z,7.70
2018-04-02T09:54:38.496Z,7.80
2018-04-02T09:57:06.732Z,7.80
2018-04-02T09:59:34.221Z,7.90
2018-04-02T10:02:07.489Z,7.90
2018-04-02T10:04:35.072Z,7.80
2018-04-02T10:07:02.436Z,7.80
2018-04-02T10:09:30.671Z,7.90
2018-04-02T10:11:58.190Z,8.10
2018-04-02T10:14:25.762Z,8.00
2018-04-02T10:16:53.160Z,8.00
2018-04-02T10:19:20.653Z,8.10
2018-04-02T10:21:48.139Z,8.20
2018-04-02T10:24:15.696Z,8.20
2018-04-02T10:26:43.484Z,8.30
2018-04-02T10:29:10.967Z,8.30
2018-04-02T10:31:38.492Z,8.40
2018-04-02T10:34:05.990Z,8.40
2018-04-02T10:36:33.469Z,8.50
2018-04-02T10:39:00.999Z,8.50
2018-04-02T10:41:28.538Z,8.60
2018-04-02T10:43:56.013Z,8.60
2018-04-02T10:46:23.490Z,8.70
2018-04-02T10:48:51.748Z,8.70
2018-04-02T10:51:19.384Z,8.70
2018-04-02T10:53:46.915Z,8.90
2018-04-02T10:56:14.796Z,8.80
2018-04-02T10:58:42.493Z,8.80
2018-04-02T11:01:09.972Z,8.80
2018-04-02T11:03:37.852Z,8.90
2018-04-02T11:06:05.753Z,8.90
2018-04-02T11:08:33.235Z,9.00
2018-04-02T11:11:00.712Z,9.00
2018-04-02T11:13:28.945Z,9.00
2018-04-02T11:15:56.415Z,9.10
2018-04-02T11:18:24.211Z,9.10
2018-04-02T11:20:52.451Z,9.10
2018-04-02T11:23:19.919Z,9.10
2018-04-02T11:25:47.692Z,9.20
2018-04-02T11:28:15.204Z,9.20
2018-04-02T11:30:42.679Z,9.30
2018-04-02T11:33:10.182Z,9.40
2018-04-02T11:35:38.412Z,9.40
2018-04-02T11:38:05.884Z,9.50
2018-04-02T11:40:33.661Z,9.60
2018-04-02T11:43:01.166Z,9.60
2018-04-02T11:45:28.857Z,9.50
2018-04-02T11:47:56.333Z,9.40
2018-04-02T11:50:24.576Z,9.70
2018-04-02T11:52:52.048Z,9.70
2018-04-02T11:55:19.526Z,9.70
2018-04-02T11:57:47.768Z,9.60
2018-04-02T12:00:15.244Z,9.60
2018-04-02T12:02:42.763Z,9.60
2018-04-02T12:05:10.260Z,9.60
2018-04-02T12:07:37.724Z,9.70
2018-04-02T12:10:05.235Z,9.80
2018-04-02T12:12:32.703Z,9.80
2018-04-02T12:15:00.184Z,9.80
2018-04-02T12:17:28.395Z,9.70
2018-04-02T12:19:56.644Z,9.80
2018-04-02T12:22:24.899Z,10.00
2018-04-02T12:24:52.694Z,10.00
2018-04-02T12:27:20.938Z,10.20
2018-04-02T12:29:48.429Z,10.20
2018-04-02T12:32:16.968Z,10.20
2018-04-02T12:34:44.448Z,10.10
2018-04-02T12:37:11.920Z,10.10
2018-04-02T12:39:39.452Z,10.10
2018-04-02T12:42:06.916Z,10.20
2018-04-02T12:44:35.296Z,10.30
2018-04-02T12:47:02.800Z,10.30
2018-04-02T12:49:30.287Z,10.20
2018-04-02T12:51:57.822Z,10.20
2018-04-02T12:54:25.395Z,10.30
2018-04-02T12:56:52.881Z,10.50
2018-04-02T12:59:20.367Z,10.60
2018-04-02T13:01:48.641Z,10.60
2018-04-02T13:04:16.888Z,10.60
2018-04-02T13:06:44.408Z,10.60
2018-04-02T13:09:12.241Z,10.70
2018-04-02T13:11:40.488Z,10.80
2018-04-02T13:14:07.961Z,10.90
2018-04-02T13:16:35.474Z,10.90
2018-04-02T13:19:02.937Z,10.90
2018-04-02T13:21:30.411Z,11.00
2018-04-02T13:23:57.908Z,11.00
2018-04-02T13:26:26.178Z,11.10
2018-04-02T13:28:53.645Z,11.10
2018-04-02T13:31:22.350Z,11.40
2018-04-02T13:33:50.558Z,11.40
2018-04-02T13:36:18.108Z,11.50
2018-04-02T13:38:46.623Z,11.50
2018-04-02T13:41:14.087Z,11.40
2018-04-02T13:43:41.556Z,11.40
2018-04-02T13:46:09.444Z,11.40
2018-04-02T13:48:36.920Z,11.40
2018-04-02T13:51:04.401Z,11.40
2018-04-02T13:53:32.274Z,11.40
2018-04-02T13:56:00.156Z,11.40
2018-04-02T13:58:28.027Z,11.40
2018-04-02T14:00:56.184Z,11.40
2018-04-02T14:03:23.655Z,11.40
2018-04-02T14:05:51.547Z,11.50
2018-04-02T14:08:19.087Z,11.60
2018-04-02T14:10:47.363Z,11.70
2018-04-02T14:13:15.200Z,11.80
2018-04-02T14:15:43.325Z,11.90
2018-04-02T14:18:11.524Z,11.90
2018-04-02T14:20:39.012Z,12.00
2018-04-02T14:23:06.498Z,11.90
2018-04-02T14:25:34.371Z,11.90
2018-04-02T14:28:01.847Z,11.60
2018-04-02T14:30:29.676Z,11.70
2018-04-02T14:32:57.150Z,11.80
2018-04-02T14:35:24.632Z,11.80
2018-04-02T14:37:52.134Z,11.80
2018-04-02T14:40:20.012Z,11.90
2018-04-02T14:42:47.516Z,11.90
2018-04-02T14:45:15.419Z,11.70
2018-04-02T14:47:42.891Z,11.80
2018-04-02T14:50:10.777Z,11.90
2018-04-02T14:52:39.043Z,11.90
2018-04-02T14:55:06.921Z,11.90
2018-04-02T14:57:35.166Z,11.90
2018-04-02T15:00:02.649Z,12.00
2018-04-02T15:02:30.650Z,12.00
2018-04-02T15:04:58.934Z,11.90
2018-04-02T15:07:26.656Z,12.10
2018-04-02T15:09:54.529Z,12.20
2018-04-02T15:12:22.426Z,12.30
2018-04-02T15:14:50.183Z,12.20
2018-04-02T15:17:17.686Z,12.20
2018-04-02T15:19:45.199Z,12.20
2018-04-02T15:22:13.339Z,12.20
2018-04-02T15:24:41.234Z,12.20
2018-04-02T15:27:08.708Z,12.20
2018-04-02T15:29:36.219Z,12.10
2018-04-02T15:32:04.091Z,12.20
2018-04-02T15:34:32.332Z,12.20
2018-04-02T15:37:00.251Z,12.20
2018-04-02T15:39:28.112Z,12.30
2018-04-02T15:41:55.980Z,12.30
2018-04-02T15:44:23.869Z,12.30
2018-04-02T15:46:51.425Z,12.30
2018-04-02T15:49:18.945Z,12.30
2018-04-02T15:51:46.820Z,12.40
2018-04-02T15:54:14.700Z,12.40
2018-04-02T15:56:42.199Z,12.30
2018-04-02T15:59:09.681Z,12.30
2018-04-02T16:01:38.674Z,12.30
2018-04-02T16:04:06.158Z,12.30
2018-04-02T16:06:34.416Z,12.30
2018-04-02T16:09:02.655Z,12.30
2018-04-02T16:11:30.931Z,12.30
2018-04-02T16:13:59.192Z,12.20
2018-04-02T16:16:26.687Z,12.30
2018-04-02T16:18:54.195Z,12.30
2018-04-02T16:21:23.721Z,12.30
2018-04-02T16:23:51.580Z,12.30
2018-04-02T16:26:20.004Z,12.40
2018-04-02T16:28:48.596Z,12.30
2018-04-02T16:31:16.456Z,12.30
2018-04-02T16:33:44.688Z,12.30
2018-04-02T16:36:12.488Z,12.40
2018-04-02T16:38:39.951Z,12.30
2018-04-02T16:41:07.820Z,12.40
2018-04-02T16:43:35.984Z,12.30
2018-04-02T16:46:03.452Z,12.30
2018-04-02T16:48:31.762Z,12.30
2018-04-02T16:50:59.972Z,12.40
2018-04-02T16:53:27.844Z,12.40
2018-04-02T16:55:55.333Z,12.40
2018-04-02T16:58:23.604Z,12.40
2018-04-02T17:00:51.464Z,12.40
2018-04-02T17:03:19.775Z,12.40
2018-04-02T17:05:47.273Z,12.30
2018-04-02T17:08:14.811Z,12.30
2018-04-02T17:10:42.680Z,12.30
2018-04-02T17:13:10.421Z,12.30
2018-04-02T17:15:37.912Z,12.20
2018-04-02T17:18:05.442Z,12.30
2018-04-02T17:20:33.669Z,12.20
2018-04-02T17:23:01.540Z,12.20
2018-04-02T17:25:29.791Z,12.20
2018-04-02T17:27:57.593Z,12.10
2018-04-02T17:30:25.468Z,12.20
2018-04-02T17:32:53.738Z,12.10
2018-04-02T17:35:22.304Z,12.20
2018-04-02T17:37:50.183Z,12.20
2018-04-02T17:40:18.048Z,12.20
2018-04-02T17:42:45.997Z,12.20
2018-04-02T17:45:13.468Z,12.20
2018-04-02T17:47:41.776Z,12.10
2018-04-02T17:50:09.661Z,12.10
2018-04-02T17:52:37.133Z,12.00
2018-04-02T17:55:05.450Z,12.00
2018-04-02T17:57:33.200Z,12.00
2018-04-02T18:00:01.093Z,11.90
2018-04-02T18:02:28.580Z,11.90
2018-04-02T18:04:56.335Z,11.80
2018-04-02T18:07:24.713Z,11.80
2018-04-02T18:09:52.195Z,11.80
2018-04-02T18:12:20.341Z,11.80
2018-04-02T18:14:48.233Z,11.80
2018-04-02T18:17:16.112Z,11.80
2018-04-02T18:19:43.939Z,11.70
2018-04-02T18:22:11.400Z,11.70
2018-04-02T18:24:39.269Z,11.50
2018-04-02T18:27:07.388Z,11.40
2018-04-02T18:29:34.892Z,11.30
2018-04-02T18:32:03.125Z,11.20
2018-04-02T18:34:31.015Z,11.00
2018-04-02T18:36:58.882Z,11.00
2018-04-02T18:39:26.368Z,10.90
2018-04-02T18:41:54.180Z,10.80
2018-04-02T18:44:22.434Z,10.70
2018-04-02T18:46:50.316Z,10.60
2018-04-02T18:49:18.098Z,10.50
2018-04-02T18:51:46.099Z,10.50
2018-04-02T18:54:14.707Z,10.40
2018-04-02T18:56:42.951Z,10.40
2018-04-02T18:59:12.149Z,10.30
2018-04-02T19:01:39.716Z,10.30
2018-04-02T19:04:07.228Z,10.30
2018-04-02T19:06:35.104Z,10.30
2018-04-02T19:09:03.333Z,10.30
2018-04-02T19:11:31.596Z,10.30
2018-04-02T19:13:59.074Z,10.30
2018-04-02T19:16:27.325Z,10.30
2018-04-02T19:18:55.213Z,10.30
2018-04-02T19:21:23.079Z,10.30
2018-04-02T19:23:50.953Z,10.30
2018-04-02T19:26:19.209Z,10.20
2018-04-02T19:28:47.803Z,10.20
2018-04-02T19:31:15.285Z,10.20
2018-04-02T19:33:43.473Z,10.20
2018-04-02T19:36:11.335Z,10.10
2018-04-02T19:38:39.208Z,10.10
2018-04-02T19:41:07.083Z,10.10
2018-04-02T19:43:34.572Z,10.10
2018-04-02T19:46:03.187Z,10.00
2018-04-02T19:48:31.067Z,10.00
2018-04-02T19:50:58.534Z,10.00
2018-04-02T19:53:26.768Z,10.00
2018-04-02T19:55:54.909Z,9.90
2018-04-02T19:58:22.893Z,9.90
2018-04-02T20:00:50.401Z,9.90
2018-04-02T20:03:18.984Z,9.90
2018-04-02T20:05:46.847Z,9.90
2018-04-02T20:08:15.092Z,9.90
2018-04-02T20:10:42.840Z,9.90
2018-04-02T20:13:10.708Z,9.90
2018-04-02T20:15:38.582Z,9.90
2018-04-02T20:18:07.463Z,9.90
2018-04-02T20:20:34.944Z,9.90
2018-04-02T20:23:02.485Z,9.80
2018-04-02T20:25:29.902Z,9.80
2018-04-02T20:27:58.135Z,9.80
2018-04-02T20:30:26.520Z,9.80
2018-04-02T20:32:53.994Z,9.80
2018-04-02T20:35:21.859Z,9.80
2018-04-02T20:37:49.719Z,9.80
2018-04-02T20:40:17.890Z,9.80
2018-04-02T20:42:45.399Z,9.80
2018-04-02T20:45:13.269Z,9.80
2018-04-02T20:47:40.741Z,9.80
2018-04-02T20:50:08.207Z,9.80
2018-04-02T20:52:35.688Z,9.80
2018-04-02T20:55:04.684Z,9.80
2018-04-02T20:57:32.143Z,9.70
2018-04-02T21:00:00.372Z,9.70
2018-04-02T21:02:28.178Z,9.70
2018-04-02T21:04:56.041Z,9.70
2018-04-02T21:07:25.033Z,9.70
2018-04-02T21:09:52.508Z,9.70
2018-04-02T21:12:20.740Z,9.60
2018-04-02T21:14:48.685Z,9.60
2018-04-02T21:17:17.652Z,9.60
2018-04-02T21:19:45.514Z,9.60
2018-04-02T21:22:13.763Z,9.60
2018-04-02T21:24:41.639Z,9.60
2018-04-02T21:27:09.515Z,9.60
2018-04-02T21:29:37.743Z,9.60
2018-04-02T21:32:05.648Z,9.60
2018-04-02T21:34:33.521Z,9.60
2018-04-02T21:37:01.383Z,9.60
2018-04-02T21:39:29.627Z,9.60
2018-04-02T21:41:57.103Z,9.60
2018-04-02T21:44:24.957Z,9.60
2018-04-02T21:46:53.204Z,9.50
2018-04-02T21:49:20.692Z,9.60
2018-04-02T21:51:48.172Z,9.60
2018-04-02T21:54:16.307Z,9.60
2018-04-02T21:56:44.161Z,9.60
2018-04-02T21:59:11.664Z,9.60
2018-04-02T22:01:39.156Z,9.60
2018-04-02T22:04:07.053Z,9.70
2018-04-02T22:20:05.659Z,9.70
2018-04-02T22:22:33.119Z,9.80
2018-04-02T22:25:01.358Z,9.80
2018-04-02T22:27:29.611Z,9.80
2018-04-02T22:29:57.471Z,9.80
2018-04-02T22:32:24.939Z,9.80
2018-04-02T22:34:52.420Z,9.80
2018-04-02T22:37:20.685Z,9.80
2018-04-02T22:39:48.162Z,9.80
2018-04-02T22:42:15.652Z,9.80
2018-04-02T22:44:43.887Z,9.80
2018-04-02T22:47:12.861Z,9.70
2018-04-02T22:49:40.336Z,9.70
2018-04-02T22:52:07.811Z,9.70
2018-04-02T22:54:36.076Z,9.70
2018-04-02T22:57:04.324Z,9.80
2018-04-02T22:59:31.824Z,9.80
2018-04-02T23:01:59.695Z,9.80
2018-04-02T23:04:27.940Z,9.80
2018-04-02T23:06:56.925Z,9.80
2018-04-02T23:09:25.166Z,9.80
2018-04-02T23:11:52.643Z,9.90
2018-04-02T23:14:20.148Z,9.90
2018-04-02T23:16:48.042Z,9.90
2018-04-02T23:19:16.228Z,10.00
2018-04-02T23:21:43.692Z,10.00
2018-04-02T23:24:11.179Z,10.10
2018-04-02T23:26:39.383Z,10.10
2018-04-02T23:29:07.625Z,10.10
2018-04-02T23:31:35.123Z,10.10
2018-04-02T23:34:02.987Z,10.10
2018-04-02T23:36:31.224Z,10.10
2018-04-02T23:38:59.094Z,10.10
2018-04-02T23:41:26.587Z,10.10
2018-04-02T23:43:54.839Z,10.10
2018-04-02T23:46:22.315Z,10.20
2018-04-02T23:48:50.587Z,10.20
2018-04-02T23:51:18.823Z,10.20
2018-04-02T23:53:46.340Z,10.20
2018-04-02T23:56:13.828Z,10.30
2018-04-02T23:58:41.728Z,10.30
